sensor_id;sensor_type;location;lat;lon;timestamp;P1;durP1;ratioP1;P2;durP2;ratioP2
84913;SDS011;75177;43.832;5.974;2024-01-30T07:39:29;23.63;;;9.55;;
84913;SDS011;75177;43.832;5.974;2024-01-30T07:41:55;19.77;;;8.68;;
84913;SDS011;75177;43.832;5.974;2024-01-30T07:44:20;23.27;;;7.68;;
84913;SDS011;75177;43.832;5.974;2024-01-30T07:46:46;18.52;;;7.03;;
84913;SDS011;75177;43.832;5.974;2024-01-30T07:49:11;16.17;;;7.47;;
84913;SDS011;75177;43.832;5.974;2024-01-30T07:51:39;11.95;;;6.53;;
84913;SDS011;75177;43.832;5.974;2024-01-30T07:54:10;12.90;;;6.65;;
84913;SDS011;75177;43.832;5.974;2024-01-30T07:56:36;17.27;;;6.88;;
84913;SDS011;75177;43.832;5.974;2024-01-30T07:59:01;14.60;;;6.05;;
84913;SDS011;75177;43.832;5.974;2024-01-30T08:01:26;9.65;;;5.90;;
84913;SDS011;75177;43.832;5.974;2024-01-30T08:03:52;12.73;;;5.53;;
84913;SDS011;75177;43.832;5.974;2024-01-30T08:06:18;13.73;;;6.00;;
84913;SDS011;75177;43.832;5.974;2024-01-30T08:08:43;15.00;;;6.40;;
84913;SDS011;75177;43.832;5.974;2024-01-30T08:11:09;17.27;;;8.20;;
84913;SDS011;75177;43.832;5.974;2024-01-30T08:13:34;20.20;;;9.13;;
84913;SDS011;75177;43.832;5.974;2024-01-30T08:16:00;24.27;;;11.10;;
84913;SDS011;75177;43.832;5.974;2024-01-30T08:18:25;24.50;;;12.45;;
84913;SDS011;75177;43.832;5.974;2024-01-30T08:20:51;26.00;;;12.40;;
84913;SDS011;75177;43.832;5.974;2024-01-30T08:23:16;27.55;;;11.85;;
84913;SDS011;75177;43.832;5.974;2024-01-30T08:25:42;34.80;;;12.00;;
84913;SDS011;75177;43.832;5.974;2024-01-30T08:28:07;42.50;;;20.48;;
84913;SDS011;75177;43.832;5.974;2024-01-30T08:30:33;40.22;;;16.85;;
84913;SDS011;75177;43.832;5.974;2024-01-30T08:32:58;31.17;;;12.65;;
84913;SDS011;75177;43.832;5.974;2024-01-30T08:35:24;24.67;;;10.85;;
84913;SDS011;75177;43.832;5.974;2024-01-30T08:37:49;28.52;;;12.82;;
84913;SDS011;75177;43.832;5.974;2024-01-30T08:40:15;20.52;;;11.13;;
84913;SDS011;75177;43.832;5.974;2024-01-30T08:42:40;22.33;;;10.30;;
84913;SDS011;75177;43.832;5.974;2024-01-30T08:45:06;20.45;;;9.05;;
84913;SDS011;75177;43.832;5.974;2024-01-30T08:47:31;20.23;;;9.65;;
84913;SDS011;75177;43.832;5.974;2024-01-30T08:49:58;28.10;;;11.10;;
84913;SDS011;75177;43.832;5.974;2024-01-30T08:52:23;30.90;;;11.15;;
84913;SDS011;75177;43.832;5.974;2024-01-30T08:54:49;24.85;;;11.27;;
84913;SDS011;75177;43.832;5.974;2024-01-30T08:57:14;28.30;;;11.25;;
84913;SDS011;75177;43.832;5.974;2024-01-30T08:59:39;25.80;;;12.10;;
84913;SDS011;75177;43.832;5.974;2024-01-30T09:02:05;25.65;;;11.23;;
84913;SDS011;75177;43.832;5.974;2024-01-30T09:04:31;22.58;;;11.38;;
84913;SDS011;75177;43.832;5.974;2024-01-30T09:06:56;19.33;;;10.90;;
84913;SDS011;75177;43.832;5.974;2024-01-30T09:09:21;19.08;;;9.07;;
84913;SDS011;75177;43.832;5.974;2024-01-30T09:11:47;12.88;;;7.05;;
84913;SDS011;75177;43.832;5.974;2024-01-30T09:14:12;12.07;;;7.32;;
84913;SDS011;75177;43.832;5.974;2024-01-30T09:16:38;13.80;;;7.72;;
84913;SDS011;75177;43.832;5.974;2024-01-30T09:19:03;11.10;;;5.70;;
84913;SDS011;75177;43.832;5.974;2024-01-30T09:21:29;12.68;;;6.93;;
84913;SDS011;75177;43.832;5.974;2024-01-30T09:23:54;13.23;;;7.53;;
84913;SDS011;75177;43.832;5.974;2024-01-30T09:26:26;17.73;;;9.65;;
84913;SDS011;75177;43.832;5.974;2024-01-30T09:28:51;11.23;;;5.90;;
84913;SDS011;75177;43.832;5.974;2024-01-30T09:31:17;13.65;;;7.20;;
84913;SDS011;75177;43.832;5.974;2024-01-30T09:33:42;17.23;;;8.55;;
84913;SDS011;75177;43.832;5.974;2024-01-30T09:36:09;15.73;;;8.82;;
84913;SDS011;75177;43.832;5.974;2024-01-30T09:38:34;14.82;;;7.97;;
84913;SDS011;75177;43.832;5.974;2024-01-30T09:41:00;18.52;;;9.75;;
84913;SDS011;75177;43.832;5.974;2024-01-30T09:43:33;9.63;;;5.72;;
84913;SDS011;75177;43.832;5.974;2024-01-30T09:46:02;15.65;;;8.68;;
84913;SDS011;75177;43.832;5.974;2024-01-30T09:48:28;19.55;;;10.55;;
84913;SDS011;75177;43.832;5.974;2024-01-30T09:50:55;11.43;;;6.97;;
84913;SDS011;75177;43.832;5.974;2024-01-30T09:53:22;13.97;;;7.23;;
84913;SDS011;75177;43.832;5.974;2024-01-30T09:55:48;14.38;;;8.50;;
84913;SDS011;75177;43.832;5.974;2024-01-30T09:58:15;19.58;;;10.88;;
84913;SDS011;75177;43.832;5.974;2024-01-30T10:00:41;18.65;;;9.73;;
84913;SDS011;75177;43.832;5.974;2024-01-30T10:03:06;13.15;;;8.05;;
84913;SDS011;75177;43.832;5.974;2024-01-30T10:05:32;12.57;;;6.80;;
84913;SDS011;75177;43.832;5.974;2024-01-30T10:07:59;11.05;;;6.18;;
84913;SDS011;75177;43.832;5.974;2024-01-30T10:10:25;11.35;;;6.50;;
84913;SDS011;75177;43.832;5.974;2024-01-30T10:12:51;12.52;;;6.47;;
84913;SDS011;75177;43.832;5.974;2024-01-30T10:15:17;9.70;;;5.95;;
84913;SDS011;75177;43.832;5.974;2024-01-30T10:17:44;10.60;;;6.82;;
84913;SDS011;75177;43.832;5.974;2024-01-30T10:20:10;15.18;;;9.20;;
84913;SDS011;75177;43.832;5.974;2024-01-30T10:22:36;11.43;;;7.03;;
84913;SDS011;75177;43.832;5.974;2024-01-30T10:25:01;16.38;;;8.13;;
84913;SDS011;75177;43.832;5.974;2024-01-30T10:27:27;10.57;;;6.05;;
84913;SDS011;75177;43.832;5.974;2024-01-30T10:29:54;12.50;;;5.43;;
84913;SDS011;75177;43.832;5.974;2024-01-30T10:32:20;10.95;;;6.38;;
84913;SDS011;75177;43.832;5.974;2024-01-30T10:34:46;8.07;;;5.03;;
84913;SDS011;75177;43.832;5.974;2024-01-30T10:37:11;10.68;;;6.35;;
84913;SDS011;75177;43.832;5.974;2024-01-30T10:39:40;9.85;;;5.25;;
84913;SDS011;75177;43.832;5.974;2024-01-30T10:42:07;7.10;;;4.80;;
84913;SDS011;75177;43.832;5.974;2024-01-30T10:44:39;8.68;;;4.72;;
84913;SDS011;75177;43.832;5.974;2024-01-30T10:47:12;8.65;;;4.63;;
84913;SDS011;75177;43.832;5.974;2024-01-30T10:49:39;10.20;;;5.90;;
84913;SDS011;75177;43.832;5.974;2024-01-30T10:52:06;13.17;;;7.60;;
84913;SDS011;75177;43.832;5.974;2024-01-30T10:54:34;11.05;;;7.28;;
84913;SDS011;75177;43.832;5.974;2024-01-30T10:57:00;13.55;;;7.25;;
84913;SDS011;75177;43.832;5.974;2024-01-30T10:59:29;8.05;;;5.22;;
84913;SDS011;75177;43.832;5.974;2024-01-30T11:01:57;12.48;;;6.47;;
84913;SDS011;75177;43.832;5.974;2024-01-30T11:04:24;7.20;;;4.68;;
84913;SDS011;75177;43.832;5.974;2024-01-30T11:06:50;9.63;;;4.70;;
84913;SDS011;75177;43.832;5.974;2024-01-30T11:09:17;12.75;;;6.45;;
84913;SDS011;75177;43.832;5.974;2024-01-30T11:11:52;9.57;;;5.55;;
84913;SDS011;75177;43.832;5.974;2024-01-30T11:14:31;9.18;;;5.93;;
84913;SDS011;75177;43.832;5.974;2024-01-30T11:16:58;15.27;;;8.10;;
84913;SDS011;75177;43.832;5.974;2024-01-30T11:19:24;10.15;;;6.00;;
84913;SDS011;75177;43.832;5.974;2024-01-30T11:21:52;7.10;;;4.43;;
84913;SDS011;75177;43.832;5.974;2024-01-30T11:24:19;9.63;;;4.90;;
84913;SDS011;75177;43.832;5.974;2024-01-30T11:26:58;6.82;;;4.32;;
84913;SDS011;75177;43.832;5.974;2024-01-30T11:29:24;10.15;;;5.47;;
84913;SDS011;75177;43.832;5.974;2024-01-30T11:31:53;6.35;;;4.30;;
84913;SDS011;75177;43.832;5.974;2024-01-30T11:34:20;6.93;;;4.82;;
84913;SDS011;75177;43.832;5.974;2024-01-30T11:36:52;11.05;;;6.70;;
84913;SDS011;75177;43.832;5.974;2024-01-30T11:39:23;9.30;;;6.05;;
84913;SDS011;75177;43.832;5.974;2024-01-30T11:41:50;10.82;;;6.25;;
84913;SDS011;75177;43.832;5.974;2024-01-30T11:44:17;8.55;;;5.30;;
84913;SDS011;75177;43.832;5.974;2024-01-30T11:46:45;8.85;;;5.40;;
84913;SDS011;75177;43.832;5.974;2024-01-30T11:49:10;7.88;;;4.90;;
84913;SDS011;75177;43.832;5.974;2024-01-30T11:51:36;8.23;;;4.25;;
84913;SDS011;75177;43.832;5.974;2024-01-30T11:54:01;6.38;;;4.28;;
84913;SDS011;75177;43.832;5.974;2024-01-30T11:56:28;10.95;;;4.68;;
84913;SDS011;75177;43.832;5.974;2024-01-30T11:58:53;9.13;;;5.53;;
84913;SDS011;75177;43.832;5.974;2024-01-30T12:01:20;9.90;;;6.32;;
84913;SDS011;75177;43.832;5.974;2024-01-30T12:03:51;10.32;;;5.57;;
84913;SDS011;75177;43.832;5.974;2024-01-30T12:06:17;8.77;;;5.32;;
84913;SDS011;75177;43.832;5.974;2024-01-30T12:08:43;9.98;;;6.20;;
84913;SDS011;75177;43.832;5.974;2024-01-30T12:11:18;14.45;;;8.90;;
84913;SDS011;75177;43.832;5.974;2024-01-30T12:13:44;11.73;;;7.13;;
84913;SDS011;75177;43.832;5.974;2024-01-30T12:16:10;11.43;;;6.78;;
84913;SDS011;75177;43.832;5.974;2024-01-30T12:18:35;8.77;;;5.78;;
84913;SDS011;75177;43.832;5.974;2024-01-30T12:21:00;7.97;;;4.38;;
84913;SDS011;75177;43.832;5.974;2024-01-30T12:23:29;8.70;;;4.53;;
84913;SDS011;75177;43.832;5.974;2024-01-30T12:25:55;9.38;;;5.90;;
84913;SDS011;75177;43.832;5.974;2024-01-30T12:28:20;11.52;;;6.28;;
84913;SDS011;75177;43.832;5.974;2024-01-30T12:30:46;10.45;;;6.40;;
84913;SDS011;75177;43.832;5.974;2024-01-30T12:33:17;8.95;;;5.53;;
84913;SDS011;75177;43.832;5.974;2024-01-30T12:35:46;9.27;;;5.95;;
84913;SDS011;75177;43.832;5.974;2024-01-30T12:38:15;9.07;;;5.40;;
84913;SDS011;75177;43.832;5.974;2024-01-30T12:40:40;7.07;;;4.28;;
84913;SDS011;75177;43.832;5.974;2024-01-30T12:43:06;7.43;;;4.85;;
84913;SDS011;75177;43.832;5.974;2024-01-30T12:45:31;11.05;;;5.90;;
84913;SDS011;75177;43.832;5.974;2024-01-30T12:47:57;10.05;;;5.60;;
84913;SDS011;75177;43.832;5.974;2024-01-30T12:50:23;9.38;;;6.20;;
84913;SDS011;75177;43.832;5.974;2024-01-30T12:52:48;9.88;;;5.00;;
84913;SDS011;75177;43.832;5.974;2024-01-30T12:55:14;9.68;;;4.70;;
84913;SDS011;75177;43.832;5.974;2024-01-30T12:57:40;9.32;;;5.90;;
84913;SDS011;75177;43.832;5.974;2024-01-30T13:00:07;9.43;;;6.07;;
84913;SDS011;75177;43.832;5.974;2024-01-30T13:02:36;10.18;;;5.80;;
84913;SDS011;75177;43.832;5.974;2024-01-30T13:05:02;11.10;;;7.22;;
84913;SDS011;75177;43.832;5.974;2024-01-30T13:07:29;13.17;;;6.77;;
84913;SDS011;75177;43.832;5.974;2024-01-30T13:09:55;10.18;;;6.60;;
84913;SDS011;75177;43.832;5.974;2024-01-30T13:12:21;9.13;;;5.65;;
84913;SDS011;75177;43.832;5.974;2024-01-30T13:14:47;11.77;;;6.13;;
84913;SDS011;75177;43.832;5.974;2024-01-30T13:17:12;9.63;;;5.68;;
84913;SDS011;75177;43.832;5.974;2024-01-30T13:19:37;8.02;;;5.05;;
84913;SDS011;75177;43.832;5.974;2024-01-30T13:22:03;6.32;;;4.35;;
84913;SDS011;75177;43.832;5.974;2024-01-30T13:24:28;7.57;;;4.70;;
84913;SDS011;75177;43.832;5.974;2024-01-30T13:26:54;8.52;;;5.70;;
84913;SDS011;75177;43.832;5.974;2024-01-30T13:29:19;9.38;;;5.80;;
84913;SDS011;75177;43.832;5.974;2024-01-30T13:31:45;10.82;;;5.63;;
84913;SDS011;75177;43.832;5.974;2024-01-30T13:34:11;7.53;;;4.68;;
84913;SDS011;75177;43.832;5.974;2024-01-30T13:36:38;7.93;;;4.25;;
84913;SDS011;75177;43.832;5.974;2024-01-30T13:39:04;7.13;;;4.80;;
84913;SDS011;75177;43.832;5.974;2024-01-30T13:41:33;7.60;;;4.13;;
84913;SDS011;75177;43.832;5.974;2024-01-30T13:56:51;7.63;;;5.00;;
84913;SDS011;75177;43.832;5.974;2024-01-30T13:59:17;7.88;;;4.78;;
84913;SDS011;75177;43.832;5.974;2024-01-30T14:01:48;9.85;;;4.70;;
84913;SDS011;75177;43.832;5.974;2024-01-30T14:04:14;8.07;;;5.05;;
84913;SDS011;75177;43.832;5.974;2024-01-30T14:06:39;7.95;;;4.90;;
84913;SDS011;75177;43.832;5.974;2024-01-30T14:09:05;6.60;;;4.47;;
84913;SDS011;75177;43.832;5.974;2024-01-30T14:11:31;8.55;;;4.22;;
84913;SDS011;75177;43.832;5.974;2024-01-30T14:13:56;6.85;;;4.22;;
84913;SDS011;75177;43.832;5.974;2024-01-30T14:16:22;8.90;;;4.32;;
84913;SDS011;75177;43.832;5.974;2024-01-30T14:18:49;6.78;;;4.60;;
84913;SDS011;75177;43.832;5.974;2024-01-30T14:21:15;7.32;;;4.30;;
84913;SDS011;75177;43.832;5.974;2024-01-30T14:23:40;7.65;;;4.70;;
84913;SDS011;75177;43.832;5.974;2024-01-30T14:26:06;8.25;;;4.45;;
84913;SDS011;75177;43.832;5.974;2024-01-30T14:28:31;8.38;;;4.80;;
84913;SDS011;75177;43.832;5.974;2024-01-30T14:30:57;7.88;;;5.63;;
84913;SDS011;75177;43.832;5.974;2024-01-30T14:33:22;9.43;;;4.40;;
84913;SDS011;75177;43.832;5.974;2024-01-30T14:35:47;6.88;;;3.78;;
84913;SDS011;75177;43.832;5.974;2024-01-30T14:38:13;9.88;;;4.18;;
84913;SDS011;75177;43.832;5.974;2024-01-30T14:40:39;10.98;;;4.43;;
84913;SDS011;75177;43.832;5.974;2024-01-30T14:43:04;7.38;;;4.50;;
84913;SDS011;75177;43.832;5.974;2024-01-30T14:45:30;7.53;;;4.70;;
84913;SDS011;75177;43.832;5.974;2024-01-30T14:47:57;8.57;;;4.40;;
84913;SDS011;75177;43.832;5.974;2024-01-30T14:52:50;12.48;;;4.65;;
84913;SDS011;75177;43.832;5.974;2024-01-30T14:55:16;7.38;;;4.85;;
84913;SDS011;75177;43.832;5.974;2024-01-30T14:57:41;7.35;;;4.65;;
84913;SDS011;75177;43.832;5.974;2024-01-30T15:00:08;10.35;;;4.28;;
84913;SDS011;75177;43.832;5.974;2024-01-30T15:02:34;7.60;;;4.60;;
84913;SDS011;75177;43.832;5.974;2024-01-30T15:05:00;6.90;;;4.60;;
84913;SDS011;75177;43.832;5.974;2024-01-30T15:07:26;8.27;;;4.32;;
84913;SDS011;75177;43.832;5.974;2024-01-30T15:09:52;9.02;;;4.10;;
84913;SDS011;75177;43.832;5.974;2024-01-30T15:12:18;6.78;;;4.03;;
84913;SDS011;75177;43.832;5.974;2024-01-30T15:14:43;7.10;;;3.80;;
84913;SDS011;75177;43.832;5.974;2024-01-30T15:17:15;7.63;;;4.47;;
84913;SDS011;75177;43.832;5.974;2024-01-30T15:19:44;5.88;;;4.40;;
84913;SDS011;75177;43.832;5.974;2024-01-30T15:22:09;8.27;;;4.60;;
84913;SDS011;75177;43.832;5.974;2024-01-30T15:24:35;8.38;;;4.30;;
84913;SDS011;75177;43.832;5.974;2024-01-30T15:27:00;9.05;;;4.00;;
84913;SDS011;75177;43.832;5.974;2024-01-30T15:29:26;8.07;;;4.00;;
84913;SDS011;75177;43.832;5.974;2024-01-30T15:31:51;5.80;;;3.67;;
84913;SDS011;75177;43.832;5.974;2024-01-30T15:34:17;9.50;;;3.90;;
84913;SDS011;75177;43.832;5.974;2024-01-30T15:36:42;8.15;;;3.80;;
84913;SDS011;75177;43.832;5.974;2024-01-30T15:39:08;9.13;;;3.90;;
84913;SDS011;75177;43.832;5.974;2024-01-30T15:41:35;10.02;;;3.80;;
84913;SDS011;75177;43.832;5.974;2024-01-30T15:44:01;5.70;;;3.35;;
84913;SDS011;75177;43.832;5.974;2024-01-30T15:46:27;8.02;;;3.75;;
84913;SDS011;75177;43.832;5.974;2024-01-30T15:48:53;7.30;;;3.78;;
84913;SDS011;75177;43.832;5.974;2024-01-30T15:51:19;6.05;;;3.40;;
84913;SDS011;75177;43.832;5.974;2024-01-30T15:53:44;8.82;;;3.42;;
84913;SDS011;75177;43.832;5.974;2024-01-30T15:56:09;5.57;;;3.30;;
84913;SDS011;75177;43.832;5.974;2024-01-30T15:58:35;5.90;;;4.15;;
84913;SDS011;75177;43.832;5.974;2024-01-30T16:01:00;9.60;;;3.85;;
84913;SDS011;75177;43.832;5.974;2024-01-30T16:03:26;7.60;;;3.78;;
84913;SDS011;75177;43.832;5.974;2024-01-30T16:05:51;4.47;;;3.50;;
84913;SDS011;75177;43.832;5.974;2024-01-30T16:08:16;12.00;;;6.82;;
84913;SDS011;75177;43.832;5.974;2024-01-30T16:10:42;12.65;;;10.18;;
84913;SDS011;75177;43.832;5.974;2024-01-30T16:13:08;11.25;;;4.28;;
84913;SDS011;75177;43.832;5.974;2024-01-30T16:15:33;5.00;;;3.60;;
84913;SDS011;75177;43.832;5.974;2024-01-30T16:17:59;7.68;;;3.60;;
84913;SDS011;75177;43.832;5.974;2024-01-30T16:20:24;5.45;;;3.63;;
84913;SDS011;75177;43.832;5.974;2024-01-30T16:22:49;7.72;;;3.70;;
84913;SDS011;75177;43.832;5.974;2024-01-30T16:25:17;8.75;;;3.90;;
84913;SDS011;75177;43.832;5.974;2024-01-30T16:27:44;8.45;;;5.30;;
84913;SDS011;75177;43.832;5.974;2024-01-30T16:30:10;9.02;;;5.00;;
84913;SDS011;75177;43.832;5.974;2024-01-30T16:32:35;10.05;;;4.70;;
84913;SDS011;75177;43.832;5.974;2024-01-30T16:35:01;15.25;;;4.40;;
84913;SDS011;75177;43.832;5.974;2024-01-30T16:37:27;6.55;;;4.30;;
84913;SDS011;75177;43.832;5.974;2024-01-30T16:39:52;10.13;;;5.70;;
84913;SDS011;75177;43.832;5.974;2024-01-30T16:42:18;14.63;;;5.72;;
84913;SDS011;75177;43.832;5.974;2024-01-30T16:44:44;8.88;;;5.43;;
84913;SDS011;75177;43.832;5.974;2024-01-30T16:47:10;9.05;;;5.07;;
84913;SDS011;75177;43.832;5.974;2024-01-30T16:49:35;8.98;;;4.13;;
84913;SDS011;75177;43.832;5.974;2024-01-30T16:52:01;4.88;;;3.42;;
84913;SDS011;75177;43.832;5.974;2024-01-30T16:54:26;5.60;;;3.35;;
84913;SDS011;75177;43.832;5.974;2024-01-30T16:56:51;8.43;;;4.20;;
84913;SDS011;75177;43.832;5.974;2024-01-30T16:59:18;7.40;;;4.38;;
84913;SDS011;75177;43.832;5.974;2024-01-30T17:01:44;13.18;;;6.90;;
84913;SDS011;75177;43.832;5.974;2024-01-30T17:04:14;12.32;;;5.90;;
84913;SDS011;75177;43.832;5.974;2024-01-30T17:06:45;9.85;;;4.90;;
84913;SDS011;75177;43.832;5.974;2024-01-30T17:09:11;11.00;;;5.03;;
84913;SDS011;75177;43.832;5.974;2024-01-30T17:11:36;18.88;;;7.07;;
84913;SDS011;75177;43.832;5.974;2024-01-30T17:14:02;18.45;;;7.50;;
84913;SDS011;75177;43.832;5.974;2024-01-30T17:16:27;20.00;;;7.25;;
84913;SDS011;75177;43.832;5.974;2024-01-30T17:18:52;21.63;;;6.35;;
84913;SDS011;75177;43.832;5.974;2024-01-30T17:21:19;11.30;;;5.45;;
84913;SDS011;75177;43.832;5.974;2024-01-30T17:23:45;13.40;;;6.70;;
84913;SDS011;75177;43.832;5.974;2024-01-30T17:26:10;10.90;;;7.25;;
84913;SDS011;75177;43.832;5.974;2024-01-30T17:28:36;13.95;;;8.35;;
84913;SDS011;75177;43.832;5.974;2024-01-30T17:31:02;10.10;;;6.38;;
84913;SDS011;75177;43.832;5.974;2024-01-30T17:33:28;13.00;;;6.40;;
84913;SDS011;75177;43.832;5.974;2024-01-30T17:35:54;10.27;;;6.00;;
84913;SDS011;75177;43.832;5.974;2024-01-30T17:38:19;17.92;;;9.15;;
84913;SDS011;75177;43.832;5.974;2024-01-30T17:40:45;22.83;;;10.02;;
84913;SDS011;75177;43.832;5.974;2024-01-30T17:43:10;12.43;;;7.78;;
84913;SDS011;75177;43.832;5.974;2024-01-30T17:45:36;11.98;;;7.55;;
84913;SDS011;75177;43.832;5.974;2024-01-30T17:48:04;10.88;;;6.38;;
84913;SDS011;75177;43.832;5.974;2024-01-30T17:50:30;14.43;;;6.70;;
84913;SDS011;75177;43.832;5.974;2024-01-30T17:52:55;13.75;;;7.05;;
84913;SDS011;75177;43.832;5.974;2024-01-30T17:55:22;13.13;;;6.68;;
84913;SDS011;75177;43.832;5.974;2024-01-30T17:57:48;11.10;;;5.90;;
84913;SDS011;75177;43.832;5.974;2024-01-30T18:00:13;14.80;;;7.47;;
84913;SDS011;75177;43.832;5.974;2024-01-30T18:02:39;13.02;;;7.13;;
84913;SDS011;75177;43.832;5.974;2024-01-30T18:05:05;20.73;;;9.98;;
84913;SDS011;75177;43.832;5.974;2024-01-30T18:07:31;20.08;;;11.25;;
84913;SDS011;75177;43.832;5.974;2024-01-30T18:09:56;24.17;;;13.57;;
84913;SDS011;75177;43.832;5.974;2024-01-30T18:12:22;21.58;;;13.40;;
84913;SDS011;75177;43.832;5.974;2024-01-30T18:14:47;42.15;;;26.42;;
84913;SDS011;75177;43.832;5.974;2024-01-30T18:17:13;38.83;;;25.02;;
84913;SDS011;75177;43.832;5.974;2024-01-30T18:19:39;44.00;;;29.15;;
84913;SDS011;75177;43.832;5.974;2024-01-30T18:22:04;41.97;;;23.33;;
84913;SDS011;75177;43.832;5.974;2024-01-30T18:24:29;37.35;;;20.27;;
84913;SDS011;75177;43.832;5.974;2024-01-30T18:26:55;35.28;;;18.85;;
84913;SDS011;75177;43.832;5.974;2024-01-30T18:29:21;28.33;;;16.90;;
84913;SDS011;75177;43.832;5.974;2024-01-30T18:31:46;29.17;;;17.40;;
84913;SDS011;75177;43.832;5.974;2024-01-30T18:34:12;28.08;;;15.45;;
84913;SDS011;75177;43.832;5.974;2024-01-30T18:36:39;22.15;;;13.07;;
84913;SDS011;75177;43.832;5.974;2024-01-30T18:41:32;21.50;;;13.25;;
84913;SDS011;75177;43.832;5.974;2024-01-30T18:43:58;26.75;;;15.40;;
84913;SDS011;75177;43.832;5.974;2024-01-30T18:46:23;28.35;;;17.27;;
84913;SDS011;75177;43.832;5.974;2024-01-30T18:48:49;20.83;;;13.45;;
84913;SDS011;75177;43.832;5.974;2024-01-30T18:51:15;29.25;;;15.32;;
84913;SDS011;75177;43.832;5.974;2024-01-30T18:53:43;21.95;;;10.95;;
84913;SDS011;75177;43.832;5.974;2024-01-30T18:56:09;17.80;;;10.40;;
84913;SDS011;75177;43.832;5.974;2024-01-30T18:58:36;18.23;;;10.80;;
84913;SDS011;75177;43.832;5.974;2024-01-30T19:01:01;22.70;;;12.00;;
84913;SDS011;75177;43.832;5.974;2024-01-30T19:03:27;18.13;;;10.50;;
84913;SDS011;75177;43.832;5.974;2024-01-30T19:05:54;19.30;;;11.00;;
84913;SDS011;75177;43.832;5.974;2024-01-30T19:08:20;20.10;;;11.43;;
84913;SDS011;75177;43.832;5.974;2024-01-30T19:10:45;18.15;;;11.73;;
84913;SDS011;75177;43.832;5.974;2024-01-30T19:13:11;16.48;;;11.75;;
84913;SDS011;75177;43.832;5.974;2024-01-30T19:15:37;19.38;;;12.90;;
84913;SDS011;75177;43.832;5.974;2024-01-30T19:18:03;22.25;;;13.93;;
84913;SDS011;75177;43.832;5.974;2024-01-30T19:20:28;20.40;;;13.25;;
84913;SDS011;75177;43.832;5.974;2024-01-30T19:22:53;26.02;;;15.90;;
84913;SDS011;75177;43.832;5.974;2024-01-30T19:25:19;26.92;;;16.48;;
84913;SDS011;75177;43.832;5.974;2024-01-30T19:27:45;65.00;;;38.65;;
84913;SDS011;75177;43.832;5.974;2024-01-30T19:30:10;25.90;;;15.23;;
84913;SDS011;75177;43.832;5.974;2024-01-30T19:32:36;19.10;;;12.23;;
84913;SDS011;75177;43.832;5.974;2024-01-30T19:35:01;16.08;;;10.32;;
84913;SDS011;75177;43.832;5.974;2024-01-30T19:37:27;17.42;;;8.85;;
84913;SDS011;75177;43.832;5.974;2024-01-30T19:39:53;14.32;;;7.78;;
84913;SDS011;75177;43.832;5.974;2024-01-30T19:42:18;14.75;;;8.30;;
84913;SDS011;75177;43.832;5.974;2024-01-30T19:44:44;18.17;;;9.82;;
84913;SDS011;75177;43.832;5.974;2024-01-30T19:47:09;25.55;;;15.20;;
84913;SDS011;75177;43.832;5.974;2024-01-30T19:49:39;30.17;;;18.25;;
84913;SDS011;75177;43.832;5.974;2024-01-30T19:52:05;23.90;;;13.80;;
84913;SDS011;75177;43.832;5.974;2024-01-30T19:54:33;22.70;;;12.40;;
84913;SDS011;75177;43.832;5.974;2024-01-30T19:56:59;27.30;;;14.80;;
84913;SDS011;75177;43.832;5.974;2024-01-30T19:59:26;26.63;;;14.55;;
84913;SDS011;75177;43.832;5.974;2024-01-30T20:01:52;37.20;;;20.58;;
84913;SDS011;75177;43.832;5.974;2024-01-30T20:04:17;24.80;;;14.77;;
84913;SDS011;75177;43.832;5.974;2024-01-30T20:06:43;27.42;;;14.85;;
84913;SDS011;75177;43.832;5.974;2024-01-30T20:09:08;22.25;;;13.00;;
84913;SDS011;75177;43.832;5.974;2024-01-30T20:11:34;20.35;;;11.50;;
84913;SDS011;75177;43.832;5.974;2024-01-30T20:13:59;23.92;;;12.18;;
84913;SDS011;75177;43.832;5.974;2024-01-30T20:16:24;15.70;;;8.93;;
84913;SDS011;75177;43.832;5.974;2024-01-30T20:18:50;13.32;;;7.65;;
84913;SDS011;75177;43.832;5.974;2024-01-30T20:21:17;11.27;;;6.82;;
84913;SDS011;75177;43.832;5.974;2024-01-30T20:23:42;13.95;;;7.85;;
84913;SDS011;75177;43.832;5.974;2024-01-30T20:26:07;16.33;;;9.18;;
84913;SDS011;75177;43.832;5.974;2024-01-30T20:28:33;33.75;;;15.68;;
84913;SDS011;75177;43.832;5.974;2024-01-30T20:30:58;23.85;;;11.65;;
84913;SDS011;75177;43.832;5.974;2024-01-30T20:33:24;36.15;;;19.70;;
84913;SDS011;75177;43.832;5.974;2024-01-30T20:35:49;25.58;;;12.32;;
84913;SDS011;75177;43.832;5.974;2024-01-30T20:38:15;18.73;;;10.02;;
84913;SDS011;75177;43.832;5.974;2024-01-30T20:40:41;32.42;;;17.27;;
84913;SDS011;75177;43.832;5.974;2024-01-30T20:43:07;49.65;;;28.95;;
84913;SDS011;75177;43.832;5.974;2024-01-30T20:45:33;43.20;;;25.63;;
84913;SDS011;75177;43.832;5.974;2024-01-30T20:47:58;58.90;;;35.47;;
84913;SDS011;75177;43.832;5.974;2024-01-30T20:50:23;50.47;;;30.77;;
84913;SDS011;75177;43.832;5.974;2024-01-30T20:52:50;60.70;;;33.17;;
84913;SDS011;75177;43.832;5.974;2024-01-30T20:55:15;43.00;;;21.13;;
84913;SDS011;75177;43.832;5.974;2024-01-30T20:57:42;22.52;;;11.50;;
84913;SDS011;75177;43.832;5.974;2024-01-30T21:00:07;27.65;;;15.93;;
84913;SDS011;75177;43.832;5.974;2024-01-30T21:02:34;24.33;;;13.55;;
84913;SDS011;75177;43.832;5.974;2024-01-30T21:05:00;17.23;;;8.98;;
84913;SDS011;75177;43.832;5.974;2024-01-30T21:07:25;16.73;;;8.82;;
84913;SDS011;75177;43.832;5.974;2024-01-30T21:09:51;15.98;;;9.18;;
84913;SDS011;75177;43.832;5.974;2024-01-30T21:12:16;19.38;;;9.90;;
84913;SDS011;75177;43.832;5.974;2024-01-30T21:14:42;15.93;;;10.00;;
84913;SDS011;75177;43.832;5.974;2024-01-30T21:17:07;19.83;;;12.05;;
84913;SDS011;75177;43.832;5.974;2024-01-30T21:19:33;21.58;;;12.88;;
84913;SDS011;75177;43.832;5.974;2024-01-30T21:21:58;21.90;;;11.80;;
84913;SDS011;75177;43.832;5.974;2024-01-30T21:24:24;27.05;;;13.38;;
84913;SDS011;75177;43.832;5.974;2024-01-30T21:26:49;23.48;;;14.93;;
84913;SDS011;75177;43.832;5.974;2024-01-30T21:29:14;23.75;;;13.63;;
84913;SDS011;75177;43.832;5.974;2024-01-30T21:31:43;23.88;;;13.27;;
84913;SDS011;75177;43.832;5.974;2024-01-30T21:34:10;28.10;;;14.60;;
84913;SDS011;75177;43.832;5.974;2024-01-30T21:36:36;35.10;;;19.00;;
84913;SDS011;75177;43.832;5.974;2024-01-30T21:39:02;23.30;;;12.95;;
84913;SDS011;75177;43.832;5.974;2024-01-30T21:41:28;22.75;;;12.45;;
84913;SDS011;75177;43.832;5.974;2024-01-30T21:43:53;32.97;;;17.77;;
84913;SDS011;75177;43.832;5.974;2024-01-30T21:46:27;37.30;;;20.88;;
84913;SDS011;75177;43.832;5.974;2024-01-30T21:48:54;42.45;;;24.90;;
84913;SDS011;75177;43.832;5.974;2024-01-30T21:51:19;40.30;;;23.55;;
84913;SDS011;75177;43.832;5.974;2024-01-30T21:53:45;28.45;;;16.45;;
84913;SDS011;75177;43.832;5.974;2024-01-30T21:56:10;28.55;;;15.27;;
84913;SDS011;75177;43.832;5.974;2024-01-30T21:58:36;34.63;;;16.23;;
84913;SDS011;75177;43.832;5.974;2024-01-30T22:01:01;33.38;;;18.65;;
84913;SDS011;75177;43.832;5.974;2024-01-30T22:03:28;32.97;;;19.50;;
84913;SDS011;75177;43.832;5.974;2024-01-30T22:19:17;39.65;;;21.05;;
84913;SDS011;75177;43.832;5.974;2024-01-30T22:21:42;54.97;;;27.30;;
84913;SDS011;75177;43.832;5.974;2024-01-30T22:24:09;50.45;;;24.42;;
84913;SDS011;75177;43.832;5.974;2024-01-30T22:26:43;40.35;;;20.50;;
84913;SDS011;75177;43.832;5.974;2024-01-30T22:29:09;44.92;;;21.88;;
84913;SDS011;75177;43.832;5.974;2024-01-30T22:31:35;40.70;;;22.00;;
84913;SDS011;75177;43.832;5.974;2024-01-30T22:34:00;44.35;;;21.98;;
84913;SDS011;75177;43.832;5.974;2024-01-30T22:36:26;35.10;;;19.52;;